sensor_id;sensor_type;location;lat;lon;timestamp;P1;durP1;ratioP1;P2;durP2;ratioP2
71080;SDS011;58740;50.672;18.690;2023-01-23T00:01:34;29.80;;;11.80;;
71080;SDS011;58740;50.672;18.690;2023-01-23T00:04:03;29.70;;;11.70;;
71080;SDS011;58740;50.672;18.690;2023-01-23T00:06:32;31.50;;;12.20;;
71080;SDS011;58740;50.672;18.690;2023-01-23T00:09:00;31.20;;;13.30;;
71080;SDS011;58740;50.672;18.690;2023-01-23T00:11:29;38.60;;;13.70;;
71080;SDS011;58740;50.672;18.690;2023-01-23T00:13:58;36.50;;;14.10;;
71080;SDS011;58740;50.672;18.690;2023-01-23T00:16:29;33.40;;;13.40;;
71080;SDS011;58740;50.672;18.690;2023-01-23T00:18:59;33.10;;;13.60;;
71080;SDS011;58740;50.672;18.690;2023-01-23T00:21:28;33.30;;;13.50;;
71080;SDS011;58740;50.672;18.690;2023-01-23T00:23:58;32.50;;;12.50;;
71080;SDS011;58740;50.672;18.690;2023-01-23T00:26:29;32.80;;;13.40;;
71080;SDS011;58740;50.672;18.690;2023-01-23T00:29:02;36.40;;;14.50;;
71080;SDS011;58740;50.672;18.690;2023-01-23T00:31:35;36.50;;;13.70;;
71080;SDS011;58740;50.672;18.690;2023-01-23T00:34:09;33.90;;;13.30;;
71080;SDS011;58740;50.672;18.690;2023-01-23T00:36:40;32.30;;;13.90;;
71080;SDS011;58740;50.672;18.690;2023-01-23T00:39:20;36.20;;;13.90;;
71080;SDS011;58740;50.672;18.690;2023-01-23T00:41:49;32.80;;;13.30;;
71080;SDS011;58740;50.672;18.690;2023-01-23T00:44:17;29.30;;;12.80;;
71080;SDS011;58740;50.672;18.690;2023-01-23T00:46:45;36.50;;;15.00;;
71080;SDS011;58740;50.672;18.690;2023-01-23T00:49:13;34.90;;;13.80;;
71080;SDS011;58740;50.672;18.690;2023-01-23T00:51:44;34.20;;;12.50;;
71080;SDS011;58740;50.672;18.690;2023-01-23T00:54:13;37.20;;;13.90;;
71080;SDS011;58740;50.672;18.690;2023-01-23T00:56:41;29.40;;;13.20;;
71080;SDS011;58740;50.672;18.690;2023-01-23T00:59:10;33.80;;;14.40;;
71080;SDS011;58740;50.672;18.690;2023-01-23T01:01:38;37.10;;;14.10;;
71080;SDS011;58740;50.672;18.690;2023-01-23T01:04:06;34.00;;;14.40;;
71080;SDS011;58740;50.672;18.690;2023-01-23T01:06:33;35.80;;;13.60;;
71080;SDS011;58740;50.672;18.690;2023-01-23T01:09:02;36.70;;;14.30;;
71080;SDS011;58740;50.672;18.690;2023-01-23T01:11:31;38.90;;;14.50;;
71080;SDS011;58740;50.672;18.690;2023-01-23T01:13:59;36.00;;;13.20;;
71080;SDS011;58740;50.672;18.690;2023-01-23T01:16:27;36.90;;;12.90;;
71080;SDS011;58740;50.672;18.690;2023-01-23T01:18:55;37.00;;;14.20;;
71080;SDS011;58740;50.672;18.690;2023-01-23T01:21:23;37.30;;;15.00;;
71080;SDS011;58740;50.672;18.690;2023-01-23T01:23:51;35.60;;;14.20;;
71080;SDS011;58740;50.672;18.690;2023-01-23T01:26:18;32.40;;;14.90;;
71080;SDS011;58740;50.672;18.690;2023-01-23T01:28:49;39.80;;;14.70;;
71080;SDS011;58740;50.672;18.690;2023-01-23T01:31:17;36.50;;;15.20;;
71080;SDS011;58740;50.672;18.690;2023-01-23T01:33:45;35.80;;;13.80;;
71080;SDS011;58740;50.672;18.690;2023-01-23T01:36:16;36.20;;;13.80;;
71080;SDS011;58740;50.672;18.690;2023-01-23T01:38:46;42.70;;;16.60;;
71080;SDS011;58740;50.672;18.690;2023-01-23T01:41:14;32.20;;;13.70;;
71080;SDS011;58740;50.672;18.690;2023-01-23T01:43:43;34.90;;;14.60;;
71080;SDS011;58740;50.672;18.690;2023-01-23T01:54:17;38.20;;;14.50;;
71080;SDS011;58740;50.672;18.690;2023-01-23T01:57:06;33.10;;;14.80;;
71080;SDS011;58740;50.672;18.690;2023-01-23T02:00:01;34.80;;;14.30;;
71080;SDS011;58740;50.672;18.690;2023-01-23T02:02:42;31.90;;;14.20;;
71080;SDS011;58740;50.672;18.690;2023-01-23T02:05:16;33.50;;;13.80;;
71080;SDS011;58740;50.672;18.690;2023-01-23T02:07:51;30.20;;;11.90;;
71080;SDS011;58740;50.672;18.690;2023-01-23T02:10:23;34.10;;;12.90;;
71080;SDS011;58740;50.672;18.690;2023-01-23T02:12:51;30.10;;;13.50;;
71080;SDS011;58740;50.672;18.690;2023-01-23T02:15:21;34.60;;;13.30;;
71080;SDS011;58740;50.672;18.690;2023-01-23T02:17:50;27.10;;;12.40;;
71080;SDS011;58740;50.672;18.690;2023-01-23T02:20:23;35.10;;;13.40;;
71080;SDS011;58740;50.672;18.690;2023-01-23T02:28:50;38.20;;;11.90;;
71080;SDS011;58740;50.672;18.690;2023-01-23T02:31:21;38.20;;;13.70;;
71080;SDS011;58740;50.672;18.690;2023-01-23T02:33:54;34.40;;;12.70;;
71080;SDS011;58740;50.672;18.690;2023-01-23T02:36:26;30.80;;;12.70;;
71080;SDS011;58740;50.672;18.690;2023-01-23T02:39:12;32.40;;;12.70;;
71080;SDS011;58740;50.672;18.690;2023-01-23T02:41:49;29.90;;;13.00;;
71080;SDS011;58740;50.672;18.690;2023-01-23T02:44:21;27.30;;;12.40;;
71080;SDS011;58740;50.672;18.690;2023-01-23T02:46:57;29.90;;;12.40;;
71080;SDS011;58740;50.672;18.690;2023-01-23T02:49:27;32.50;;;13.50;;
71080;SDS011;58740;50.672;18.690;2023-01-23T02:51:55;32.40;;;13.00;;
71080;SDS011;58740;50.672;18.690;2023-01-23T02:54:24;33.90;;;12.50;;
71080;SDS011;58740;50.672;18.690;2023-01-23T02:56:52;29.60;;;13.30;;
71080;SDS011;58740;50.672;18.690;2023-01-23T02:59:20;28.20;;;10.80;;
71080;SDS011;58740;50.672;18.690;2023-01-23T03:02:07;27.00;;;11.30;;
71080;SDS011;58740;50.672;18.690;2023-01-23T03:04:35;29.00;;;13.40;;
71080;SDS011;58740;50.672;18.690;2023-01-23T03:07:03;28.10;;;13.00;;
71080;SDS011;58740;50.672;18.690;2023-01-23T03:09:30;30.60;;;11.80;;
71080;SDS011;58740;50.672;18.690;2023-01-23T03:11:58;33.10;;;12.70;;
71080;SDS011;58740;50.672;18.690;2023-01-23T03:14:27;29.30;;;12.20;;
71080;SDS011;58740;50.672;18.690;2023-01-23T03:16:56;31.40;;;12.70;;
71080;SDS011;58740;50.672;18.690;2023-01-23T03:19:25;26.80;;;11.90;;
71080;SDS011;58740;50.672;18.690;2023-01-23T03:21:53;32.90;;;13.20;;
71080;SDS011;58740;50.672;18.690;2023-01-23T03:24:28;30.60;;;12.90;;
71080;SDS011;58740;50.672;18.690;2023-01-23T03:26:56;28.40;;;12.10;;
71080;SDS011;58740;50.672;18.690;2023-01-23T03:29:24;25.90;;;11.00;;
71080;SDS011;58740;50.672;18.690;2023-01-23T03:32:12;34.70;;;12.80;;
71080;SDS011;58740;50.672;18.690;2023-01-23T03:34:42;35.50;;;13.50;;
71080;SDS011;58740;50.672;18.690;2023-01-23T03:37:11;31.50;;;13.50;;
71080;SDS011;58740;50.672;18.690;2023-01-23T03:39:39;29.10;;;12.30;;
71080;SDS011;58740;50.672;18.690;2023-01-23T03:42:26;25.50;;;12.10;;
71080;SDS011;58740;50.672;18.690;2023-01-23T03:44:54;28.80;;;12.70;;
71080;SDS011;58740;50.672;18.690;2023-01-23T03:47:22;22.80;;;10.40;;
71080;SDS011;58740;50.672;18.690;2023-01-23T03:49:49;24.80;;;11.70;;
71080;SDS011;58740;50.672;18.690;2023-01-23T03:52:17;30.70;;;12.60;;
71080;SDS011;58740;50.672;18.690;2023-01-23T03:54:45;33.30;;;13.50;;
71080;SDS011;58740;50.672;18.690;2023-01-23T03:57:13;36.40;;;12.50;;
71080;SDS011;58740;50.672;18.690;2023-01-23T03:59:40;27.60;;;12.00;;
71080;SDS011;58740;50.672;18.690;2023-01-23T04:02:08;26.50;;;10.70;;
71080;SDS011;58740;50.672;18.690;2023-01-23T04:04:36;28.70;;;12.40;;
71080;SDS011;58740;50.672;18.690;2023-01-23T04:07:05;27.30;;;11.30;;
71080;SDS011;58740;50.672;18.690;2023-01-23T04:09:33;29.30;;;12.10;;
71080;SDS011;58740;50.672;18.690;2023-01-23T04:12:00;30.30;;;13.20;;
71080;SDS011;58740;50.672;18.690;2023-01-23T04:14:28;27.70;;;11.30;;
71080;SDS011;58740;50.672;18.690;2023-01-23T04:16:59;27.90;;;13.00;;
71080;SDS011;58740;50.672;18.690;2023-01-23T04:19:27;25.60;;;11.30;;
71080;SDS011;58740;50.672;18.690;2023-01-23T04:21:54;25.50;;;11.80;;
71080;SDS011;58740;50.672;18.690;2023-01-23T04:24:22;23.20;;;11.10;;
71080;SDS011;58740;50.672;18.690;2023-01-23T04:26:51;27.90;;;11.90;;
71080;SDS011;58740;50.672;18.690;2023-01-23T04:29:19;27.30;;;11.80;;
71080;SDS011;58740;50.672;18.690;2023-01-23T04:31:47;26.60;;;10.70;;
71080;SDS011;58740;50.672;18.690;2023-01-23T04:34:14;22.80;;;11.00;;
71080;SDS011;58740;50.672;18.690;2023-01-23T04:36:42;23.80;;;11.90;;
71080;SDS011;58740;50.672;18.690;2023-01-23T04:39:10;57.20;;;25.40;;
71080;SDS011;58740;50.672;18.690;2023-01-23T04:41:38;109.70;;;41.60;;
71080;SDS011;58740;50.672;18.690;2023-01-23T04:44:05;74.30;;;32.90;;
71080;SDS011;58740;50.672;18.690;2023-01-23T04:46:51;150.40;;;74.90;;
71080;SDS011;58740;50.672;18.690;2023-01-23T04:49:23;190.10;;;82.40;;
71080;SDS011;58740;50.672;18.690;2023-01-23T04:51:52;155.30;;;68.10;;
71080;SDS011;58740;50.672;18.690;2023-01-23T04:54:21;78.40;;;34.90;;
71080;SDS011;58740;50.672;18.690;2023-01-23T04:56:48;96.70;;;47.00;;
71080;SDS011;58740;50.672;18.690;2023-01-23T04:59:16;70.10;;;42.30;;
71080;SDS011;58740;50.672;18.690;2023-01-23T05:01:44;47.50;;;27.90;;
71080;SDS011;58740;50.672;18.690;2023-01-23T05:04:12;33.40;;;18.40;;
71080;SDS011;58740;50.672;18.690;2023-01-23T05:06:40;29.80;;;13.90;;
71080;SDS011;58740;50.672;18.690;2023-01-23T05:09:08;30.80;;;12.40;;
71080;SDS011;58740;50.672;18.690;2023-01-23T05:11:36;24.10;;;11.10;;
71080;SDS011;58740;50.672;18.690;2023-01-23T05:14:04;25.10;;;11.30;;
71080;SDS011;58740;50.672;18.690;2023-01-23T05:16:32;21.00;;;10.30;;
71080;SDS011;58740;50.672;18.690;2023-01-23T05:18:59;26.30;;;11.50;;
71080;SDS011;58740;50.672;18.690;2023-01-23T05:21:27;25.60;;;11.10;;
71080;SDS011;58740;50.672;18.690;2023-01-23T05:23:55;23.90;;;10.60;;
71080;SDS011;58740;50.672;18.690;2023-01-23T05:26:23;34.70;;;13.10;;
71080;SDS011;58740;50.672;18.690;2023-01-23T05:28:50;30.90;;;13.10;;
71080;SDS011;58740;50.672;18.690;2023-01-23T05:31:18;34.70;;;15.60;;
71080;SDS011;58740;50.672;18.690;2023-01-23T05:33:46;32.40;;;15.70;;
71080;SDS011;58740;50.672;18.690;2023-01-23T05:36:14;34.40;;;15.30;;
71080;SDS011;58740;50.672;18.690;2023-01-23T05:38:44;34.50;;;14.30;;
71080;SDS011;58740;50.672;18.690;2023-01-23T05:41:12;35.80;;;14.60;;
71080;SDS011;58740;50.672;18.690;2023-01-23T05:43:42;35.70;;;14.50;;
71080;SDS011;58740;50.672;18.690;2023-01-23T05:46:10;35.40;;;14.90;;
71080;SDS011;58740;50.672;18.690;2023-01-23T05:48:37;33.90;;;13.50;;
71080;SDS011;58740;50.672;18.690;2023-01-23T05:51:05;36.00;;;16.70;;
71080;SDS011;58740;50.672;18.690;2023-01-23T05:53:33;32.40;;;14.20;;
71080;SDS011;58740;50.672;18.690;2023-01-23T05:56:05;46.90;;;21.90;;
71080;SDS011;58740;50.672;18.690;2023-01-23T05:58:34;59.90;;;25.40;;
71080;SDS011;58740;50.672;18.690;2023-01-23T06:01:02;51.00;;;21.60;;
71080;SDS011;58740;50.672;18.690;2023-01-23T06:03:31;52.70;;;25.40;;
71080;SDS011;58740;50.672;18.690;2023-01-23T06:06:00;41.10;;;17.30;;
71080;SDS011;58740;50.672;18.690;2023-01-23T06:08:28;39.90;;;15.80;;
71080;SDS011;58740;50.672;18.690;2023-01-23T06:10:59;36.50;;;17.80;;
71080;SDS011;58740;50.672;18.690;2023-01-23T06:13:27;32.40;;;15.60;;
71080;SDS011;58740;50.672;18.690;2023-01-23T06:15:56;33.60;;;16.20;;
71080;SDS011;58740;50.672;18.690;2023-01-23T06:18:24;45.50;;;21.10;;
71080;SDS011;58740;50.672;18.690;2023-01-23T06:21:01;34.30;;;16.30;;
71080;SDS011;58740;50.672;18.690;2023-01-23T06:23:29;34.10;;;14.90;;
71080;SDS011;58740;50.672;18.690;2023-01-23T06:26:01;33.20;;;12.10;;
71080;SDS011;58740;50.672;18.690;2023-01-23T06:28:30;30.60;;;12.90;;
71080;SDS011;58740;50.672;18.690;2023-01-23T06:31:01;29.70;;;13.30;;
71080;SDS011;58740;50.672;18.690;2023-01-23T06:33:30;33.30;;;15.40;;
71080;SDS011;58740;50.672;18.690;2023-01-23T06:36:00;33.90;;;16.50;;
71080;SDS011;58740;50.672;18.690;2023-01-23T06:38:32;34.10;;;16.30;;
71080;SDS011;58740;50.672;18.690;2023-01-23T06:41:00;38.10;;;18.30;;
71080;SDS011;58740;50.672;18.690;2023-01-23T06:43:28;23.40;;;11.50;;
71080;SDS011;58740;50.672;18.690;2023-01-23T06:45:56;34.20;;;13.40;;
71080;SDS011;58740;50.672;18.690;2023-01-23T06:48:24;29.20;;;13.80;;
71080;SDS011;58740;50.672;18.690;2023-01-23T06:50:58;29.60;;;14.40;;
71080;SDS011;58740;50.672;18.690;2023-01-23T06:53:27;33.10;;;14.10;;
71080;SDS011;58740;50.672;18.690;2023-01-23T06:55:59;27.80;;;13.60;;
71080;SDS011;58740;50.672;18.690;2023-01-23T06:58:28;44.80;;;22.40;;
71080;SDS011;58740;50.672;18.690;2023-01-23T07:00:56;44.40;;;20.40;;
71080;SDS011;58740;50.672;18.690;2023-01-23T07:03:25;30.40;;;15.30;;
71080;SDS011;58740;50.672;18.690;2023-01-23T07:05:55;28.00;;;13.00;;
71080;SDS011;58740;50.672;18.690;2023-01-23T07:08:28;37.60;;;16.60;;
71080;SDS011;58740;50.672;18.690;2023-01-23T07:10:55;53.60;;;20.60;;
71080;SDS011;58740;50.672;18.690;2023-01-23T07:13:23;48.00;;;22.50;;
71080;SDS011;58740;50.672;18.690;2023-01-23T07:15:51;32.50;;;16.20;;
71080;SDS011;58740;50.672;18.690;2023-01-23T07:18:19;26.40;;;11.20;;
71080;SDS011;58740;50.672;18.690;2023-01-23T07:20:48;29.80;;;13.70;;
71080;SDS011;58740;50.672;18.690;2023-01-23T07:23:16;28.20;;;13.30;;
71080;SDS011;58740;50.672;18.690;2023-01-23T07:25:44;32.20;;;13.30;;
71080;SDS011;58740;50.672;18.690;2023-01-23T07:28:12;34.70;;;15.20;;
71080;SDS011;58740;50.672;18.690;2023-01-23T07:30:40;29.70;;;13.10;;
71080;SDS011;58740;50.672;18.690;2023-01-23T07:33:11;27.50;;;12.70;;
71080;SDS011;58740;50.672;18.690;2023-01-23T07:35:38;44.30;;;17.60;;
71080;SDS011;58740;50.672;18.690;2023-01-23T07:38:06;60.90;;;25.40;;
71080;SDS011;58740;50.672;18.690;2023-01-23T07:40:34;59.50;;;24.40;;
71080;SDS011;58740;50.672;18.690;2023-01-23T07:43:05;44.10;;;17.70;;
71080;SDS011;58740;50.672;18.690;2023-01-23T07:45:33;38.60;;;15.90;;
71080;SDS011;58740;50.672;18.690;2023-01-23T07:48:01;36.60;;;15.60;;
71080;SDS011;58740;50.672;18.690;2023-01-23T07:50:28;32.90;;;15.30;;
71080;SDS011;58740;50.672;18.690;2023-01-23T07:52:56;33.40;;;16.50;;
71080;SDS011;58740;50.672;18.690;2023-01-23T07:55:24;31.90;;;16.90;;
71080;SDS011;58740;50.672;18.690;2023-01-23T07:57:52;30.50;;;14.70;;
71080;SDS011;58740;50.672;18.690;2023-01-23T08:00:20;31.70;;;15.40;;
71080;SDS011;58740;50.672;18.690;2023-01-23T08:02:51;41.10;;;18.20;;
71080;SDS011;58740;50.672;18.690;2023-01-23T08:05:19;34.40;;;15.90;;
71080;SDS011;58740;50.672;18.690;2023-01-23T08:07:46;42.20;;;17.10;;
71080;SDS011;58740;50.672;18.690;2023-01-23T08:10:15;37.60;;;15.70;;
71080;SDS011;58740;50.672;18.690;2023-01-23T08:12:43;37.30;;;18.20;;
71080;SDS011;58740;50.672;18.690;2023-01-23T08:15:11;37.90;;;18.10;;
71080;SDS011;58740;50.672;18.690;2023-01-23T08:17:39;36.80;;;16.70;;
71080;SDS011;58740;50.672;18.690;2023-01-23T08:20:07;35.30;;;16.10;;
71080;SDS011;58740;50.672;18.690;2023-01-23T08:22:36;36.40;;;16.10;;
71080;SDS011;58740;50.672;18.690;2023-01-23T08:25:09;51.50;;;20.70;;
71080;SDS011;58740;50.672;18.690;2023-01-23T08:27:37;41.20;;;17.70;;
71080;SDS011;58740;50.672;18.690;2023-01-23T08:30:06;33.00;;;14.80;;
71080;SDS011;58740;50.672;18.690;2023-01-23T08:32:35;35.80;;;16.80;;
71080;SDS011;58740;50.672;18.690;2023-01-23T08:35:03;31.10;;;14.80;;
71080;SDS011;58740;50.672;18.690;2023-01-23T08:37:32;33.90;;;14.20;;
71080;SDS011;58740;50.672;18.690;2023-01-23T08:40:01;37.20;;;16.50;;
71080;SDS011;58740;50.672;18.690;2023-01-23T08:42:32;43.10;;;18.20;;
71080;SDS011;58740;50.672;18.690;2023-01-23T08:45:03;40.50;;;19.80;;
71080;SDS011;58740;50.672;18.690;2023-01-23T08:47:32;36.70;;;15.90;;
71080;SDS011;58740;50.672;18.690;2023-01-23T08:50:04;40.30;;;16.10;;
71080;SDS011;58740;50.672;18.690;2023-01-23T08:52:32;36.40;;;16.90;;
71080;SDS011;58740;50.672;18.690;2023-01-23T08:55:02;40.10;;;19.30;;
71080;SDS011;58740;50.672;18.690;2023-01-23T08:57:30;40.10;;;18.60;;
71080;SDS011;58740;50.672;18.690;2023-01-23T08:59:57;41.90;;;19.40;;
71080;SDS011;58740;50.672;18.690;2023-01-23T09:02:25;44.50;;;20.20;;
71080;SDS011;58740;50.672;18.690;2023-01-23T09:04:53;41.40;;;17.90;;
71080;SDS011;58740;50.672;18.690;2023-01-23T09:07:20;38.00;;;18.20;;
71080;SDS011;58740;50.672;18.690;2023-01-23T09:09:48;32.60;;;16.50;;
71080;SDS011;58740;50.672;18.690;2023-01-23T09:12:16;34.80;;;16.00;;
71080;SDS011;58740;50.672;18.690;2023-01-23T09:14:44;27.50;;;14.70;;
71080;SDS011;58740;50.672;18.690;2023-01-23T09:17:12;26.80;;;12.10;;
71080;SDS011;58740;50.672;18.690;2023-01-23T09:19:39;27.00;;;13.80;;
71080;SDS011;58740;50.672;18.690;2023-01-23T09:22:07;32.80;;;16.40;;
71080;SDS011;58740;50.672;18.690;2023-01-23T09:24:35;39.00;;;17.90;;
71080;SDS011;58740;50.672;18.690;2023-01-23T09:27:02;33.00;;;17.40;;
71080;SDS011;58740;50.672;18.690;2023-01-23T09:29:30;37.00;;;17.40;;
71080;SDS011;58740;50.672;18.690;2023-01-23T09:31:58;38.30;;;16.70;;
71080;SDS011;58740;50.672;18.690;2023-01-23T09:34:27;35.30;;;15.80;;
71080;SDS011;58740;50.672;18.690;2023-01-23T09:36:55;30.00;;;14.10;;
71080;SDS011;58740;50.672;18.690;2023-01-23T09:39:23;36.00;;;16.90;;
71080;SDS011;58740;50.672;18.690;2023-01-23T09:41:51;34.00;;;14.80;;
71080;SDS011;58740;50.672;18.690;2023-01-23T09:44:37;38.20;;;16.30;;
71080;SDS011;58740;50.672;18.690;2023-01-23T09:47:37;34.00;;;17.50;;
71080;SDS011;58740;50.672;18.690;2023-01-23T09:50:16;32.10;;;14.40;;
71080;SDS011;58740;50.672;18.690;2023-01-23T09:52:56;42.50;;;16.90;;
71080;SDS011;58740;50.672;18.690;2023-01-23T09:55:38;27.50;;;13.10;;
71080;SDS011;58740;50.672;18.690;2023-01-23T09:58:17;33.70;;;14.40;;
71080;SDS011;58740;50.672;18.690;2023-01-23T10:00:50;38.00;;;17.00;;
71080;SDS011;58740;50.672;18.690;2023-01-23T10:03:18;35.10;;;15.70;;
71080;SDS011;58740;50.672;18.690;2023-01-23T10:12:52;30.20;;;14.40;;
71080;SDS011;58740;50.672;18.690;2023-01-23T10:18:36;40.10;;;16.80;;
71080;SDS011;58740;50.672;18.690;2023-01-23T10:21:22;35.90;;;14.80;;
71080;SDS011;58740;50.672;18.690;2023-01-23T10:24:25;47.80;;;18.80;;
71080;SDS011;58740;50.672;18.690;2023-01-23T10:27:20;48.00;;;17.90;;
71080;SDS011;58740;50.672;18.690;2023-01-23T10:30:02;44.60;;;16.40;;
71080;SDS011;58740;50.672;18.690;2023-01-23T10:33:00;35.00;;;15.70;;
71080;SDS011;58740;50.672;18.690;2023-01-23T10:35:57;31.00;;;14.80;;
71080;SDS011;58740;50.672;18.690;2023-01-23T10:38:44;31.80;;;14.20;;
71080;SDS011;58740;50.672;18.690;2023-01-23T10:41:15;30.90;;;14.30;;
71080;SDS011;58740;50.672;18.690;2023-01-23T10:43:52;20.10;;;10.80;;
71080;SDS011;58740;50.672;18.690;2023-01-23T10:46:27;36.50;;;14.50;;
71080;SDS011;58740;50.672;18.690;2023-01-23T10:48:59;41.90;;;16.60;;
71080;SDS011;58740;50.672;18.690;2023-01-23T10:51:42;35.10;;;14.70;;
71080;SDS011;58740;50.672;18.690;2023-01-23T10:54:16;34.70;;;15.00;;
71080;SDS011;58740;50.672;18.690;2023-01-23T10:57:30;36.60;;;15.50;;
71080;SDS011;58740;50.672;18.690;2023-01-23T11:00:21;36.00;;;15.60;;
71080;SDS011;58740;50.672;18.690;2023-01-23T11:02:54;31.70;;;14.00;;
71080;SDS011;58740;50.672;18.690;2023-01-23T11:05:35;38.80;;;18.10;;
71080;SDS011;58740;50.672;18.690;2023-01-23T11:08:27;45.10;;;19.50;;
71080;SDS011;58740;50.672;18.690;2023-01-23T11:13:42;40.30;;;15.60;;
71080;SDS011;58740;50.672;18.690;2023-01-23T11:16:20;33.70;;;15.40;;
71080;SDS011;58740;50.672;18.690;2023-01-23T11:21:50;38.40;;;15.10;;
71080;SDS011;58740;50.672;18.690;2023-01-23T11:24:30;35.20;;;15.10;;
71080;SDS011;58740;50.672;18.690;2023-01-23T11:27:19;44.70;;;18.20;;
71080;SDS011;58740;50.672;18.690;2023-01-23T11:30:20;42.60;;;18.30;;
71080;SDS011;58740;50.672;18.690;2023-01-23T11:32:58;44.50;;;18.70;;
71080;SDS011;58740;50.672;18.690;2023-01-23T11:36:12;34.00;;;15.90;;
71080;SDS011;58740;50.672;18.690;2023-01-23T11:38:49;47.50;;;19.00;;
71080;SDS011;58740;50.672;18.690;2023-01-23T11:41:32;51.30;;;20.90;;
71080;SDS011;58740;50.672;18.690;2023-01-23T11:44:06;44.00;;;18.50;;
71080;SDS011;58740;50.672;18.690;2023-01-23T11:47:11;47.50;;;21.50;;
71080;SDS011;58740;50.672;18.690;2023-01-23T11:53:20;43.80;;;18.10;;
71080;SDS011;58740;50.672;18.690;2023-01-23T11:56:22;43.50;;;18.20;;
71080;SDS011;58740;50.672;18.690;2023-01-23T12:02:15;28.80;;;12.80;;
71080;SDS011;58740;50.672;18.690;2023-01-23T12:10:55;37.80;;;18.60;;
71080;SDS011;58740;50.672;18.690;2023-01-23T12:15:02;54.10;;;21.90;;
71080;SDS011;58740;50.672;18.690;2023-01-23T12:20:17;57.70;;;23.90;;
71080;SDS011;58740;50.672;18.690;2023-01-23T12:28:59;46.60;;;21.60;;
71080;SDS011;58740;50.672;18.690;2023-01-23T12:37:57;54.20;;;22.00;;
71080;SDS011;58740;50.672;18.690;2023-01-23T12:41:12;45.50;;;19.90;;
71080;SDS011;58740;50.672;18.690;2023-01-23T12:44:42;36.90;;;15.30;;
71080;SDS011;58740;50.672;18.690;2023-01-23T12:47:13;40.30;;;17.60;;
71080;SDS011;58740;50.672;18.690;2023-01-23T12:50:07;35.60;;;17.20;;
71080;SDS011;58740;50.672;18.690;2023-01-23T12:52:58;37.80;;;15.90;;
71080;SDS011;58740;50.672;18.690;2023-01-23T12:55:35;34.10;;;15.30;;
71080;SDS011;58740;50.672;18.690;2023-01-23T12:58:06;23.70;;;12.40;;
71080;SDS011;58740;50.672;18.690;2023-01-23T13:07:08;42.30;;;16.70;;
71080;SDS011;58740;50.672;18.690;2023-01-23T13:12:39;44.10;;;17.70;;
71080;SDS011;58740;50.672;18.690;2023-01-23T13:18:01;39.80;;;16.40;;
71080;SDS011;58740;50.672;18.690;2023-01-23T13:20:31;38.60;;;16.00;;
71080;SDS011;58740;50.672;18.690;2023-01-23T13:23:28;42.30;;;17.10;;
71080;SDS011;58740;50.672;18.690;2023-01-23T13:28:47;45.10;;;18.50;;
71080;SDS011;58740;50.672;18.690;2023-01-23T13:36:45;42.30;;;18.40;;
71080;SDS011;58740;50.672;18.690;2023-01-23T13:41:49;57.60;;;24.10;;
71080;SDS011;58740;50.672;18.690;2023-01-23T13:44:20;46.90;;;20.00;;
71080;SDS011;58740;50.672;18.690;2023-01-23T13:47:20;54.20;;;21.90;;
71080;SDS011;58740;50.672;18.690;2023-01-23T13:50:32;53.40;;;22.20;;
71080;SDS011;58740;50.672;18.690;2023-01-23T13:53:24;53.10;;;24.90;;
71080;SDS011;58740;50.672;18.690;2023-01-23T13:56:26;52.40;;;21.80;;
71080;SDS011;58740;50.672;18.690;2023-01-23T13:59:43;50.60;;;20.70;;
71080;SDS011;58740;50.672;18.690;2023-01-23T14:02:33;41.70;;;19.40;;
71080;SDS011;58740;50.672;18.690;2023-01-23T14:05:36;35.00;;;17.10;;
71080;SDS011;58740;50.672;18.690;2023-01-23T14:08:22;41.50;;;20.60;;
71080;SDS011;58740;50.672;18.690;2023-01-23T14:11:12;41.40;;;16.00;;
71080;SDS011;58740;50.672;18.690;2023-01-23T14:13:54;47.00;;;18.80;;
71080;SDS011;58740;50.672;18.690;2023-01-23T14:16:54;56.60;;;21.30;;
71080;SDS011;58740;50.672;18.690;2023-01-23T14:19:26;46.70;;;18.80;;
71080;SDS011;58740;50.672;18.690;2023-01-23T14:22:05;51.00;;;18.50;;
71080;SDS011;58740;50.672;18.690;2023-01-23T14:24:47;44.50;;;17.50;;
71080;SDS011;58740;50.672;18.690;2023-01-23T14:27:20;42.00;;;17.70;;
71080;SDS011;58740;50.672;18.690;2023-01-23T14:30:03;43.10;;;17.10;;
71080;SDS011;58740;50.672;18.690;2023-01-23T14:32:42;46.60;;;19.30;;
71080;SDS011;58740;50.672;18.690;2023-01-23T14:35:23;43.10;;;18.20;;
71080;SDS011;58740;50.672;18.690;2023-01-23T14:38:04;44.60;;;18.70;;
71080;SDS011;58740;50.672;18.690;2023-01-23T14:40:33;38.70;;;17.00;;
71080;SDS011;58740;50.672;18.690;2023-01-23T14:43:19;33.90;;;16.80;;
71080;SDS011;58740;50.672;18.690;2023-01-23T14:46:03;43.50;;;16.70;;
71080;SDS011;58740;50.672;18.690;2023-01-23T14:48:45;48.70;;;20.40;;
71080;SDS011;58740;50.672;18.690;2023-01-23T14:51:26;45.70;;;18.60;;
71080;SDS011;58740;50.672;18.690;2023-01-23T14:56:32;57.20;;;21.30;;
71080;SDS011;58740;50.672;18.690;2023-01-23T14:59:05;52.10;;;20.60;;
71080;SDS011;58740;50.672;18.690;2023-01-23T15:01:53;50.20;;;21.60;;
71080;SDS011;58740;50.672;18.690;2023-01-23T15:04:24;54.50;;;20.90;;
71080;SDS011;58740;50.672;18.690;2023-01-23T15:06:59;47.80;;;21.40;;
71080;SDS011;58740;50.672;18.690;2023-01-23T15:09:31;49.10;;;20.90;;
71080;SDS011;58740;50.672;18.690;2023-01-23T15:12:15;42.20;;;17.20;;
71080;SDS011;58740;50.672;18.690;2023-01-23T15:14:44;32.30;;;14.20;;
71080;SDS011;58740;50.672;18.690;2023-01-23T15:17:19;28.60;;;12.40;;
71080;SDS011;58740;50.672;18.690;2023-01-23T15:19:53;36.50;;;14.20;;
71080;SDS011;58740;50.672;18.690;2023-01-23T15:22:29;38.70;;;15.30;;
71080;SDS011;58740;50.672;18.690;2023-01-23T15:25:29;43.40;;;15.90;;
71080;SDS011;58740;50.672;18.690;2023-01-23T15:28:01;39.60;;;15.50;;
71080;SDS011;58740;50.672;18.690;2023-01-23T15:30:40;39.10;;;14.70;;
71080;SDS011;58740;50.672;18.690;2023-01-23T15:33:30;37.30;;;15.40;;
71080;SDS011;58740;50.672;18.690;2023-01-23T15:36:10;41.20;;;16.20;;
71080;SDS011;58740;50.672;18.690;2023-01-23T15:38:57;39.00;;;15.30;;
71080;SDS011;58740;50.672;18.690;2023-01-23T15:41:44;33.50;;;15.00;;
71080;SDS011;58740;50.672;18.690;2023-01-23T15:44:22;36.50;;;15.20;;
71080;SDS011;58740;50.672;18.690;2023-01-23T15:46:56;42.60;;;17.60;;
71080;SDS011;58740;50.672;18.690;2023-01-23T15:49:28;37.20;;;15.60;;
71080;SDS011;58740;50.672;18.690;2023-01-23T15:52:09;37.20;;;17.90;;
71080;SDS011;58740;50.672;18.690;2023-01-23T15:54:51;46.30;;;19.10;;
71080;SDS011;58740;50.672;18.690;2023-01-23T15:57:22;48.20;;;20.60;;
71080;SDS011;58740;50.672;18.690;2023-01-23T15:59:50;40.20;;;16.00;;
71080;SDS011;58740;50.672;18.690;2023-01-23T16:02:20;46.00;;;17.90;;
71080;SDS011;58740;50.672;18.690;2023-01-23T16:05:00;46.80;;;17.70;;
71080;SDS011;58740;50.672;18.690;2023-01-23T16:07:33;44.00;;;16.50;;
71080;SDS011;58740;50.672;18.690;2023-01-23T16:10:19;41.30;;;17.80;;
71080;SDS011;58740;50.672;18.690;2023-01-23T16:12:53;43.40;;;16.40;;